Time;durP1;ratioP1;P1;durP2;ratioP2;P2;SDS_P1;SDS_P2;PMS_P1;PMS_P2;Temp;Humidity;BMP_temperature;BMP_pressure;BME280_temperature;BME280_humidity;BME280_pressure;Samples;Min_cycle;Max_cycle;Signal;HPM_P1;HPM_P2
2022/01/05 00:00:10;;;;;;;8.70;5.60;;;;;;;8.35;62.23;99588.89;107579;1250;74493;-74
2022/01/05 00:02:59;;;;;;;9.40;6.30;;;;;;;8.42;62.23;99592.48;107433;1250;62540;-75
2022/01/05 00:05:28;;;;;;;12.30;6.80;;;;;;;8.42;62.62;99594.27;107373;1250;60862;-72
2022/01/05 00:07:57;;;;;;;11.00;6.00;;;;;;;8.40;62.50;99599.44;107354;1248;73610;-73
2022/01/05 00:10:26;;;;;;;9.70;6.60;;;;;;;8.45;61.51;99602.18;107209;1251;70874;-73
2022/01/05 00:12:55;;;;;;;9.40;6.00;;;;;;;8.49;61.78;99612.41;107333;1250;69156;-72
2022/01/05 00:15:25;;;;;;;10.80;6.40;;;;;;;8.47;61.75;99614.95;107300;1250;72056;-74
2022/01/05 00:17:53;;;;;;;10.50;6.70;;;;;;;8.43;62.15;99619.48;107306;1250;62490;-71
2022/01/05 00:20:25;;;;;;;10.70;6.60;;;;;;;8.37;62.29;99610.77;107244;1250;60852;-72
2022/01/05 00:22:53;;;;;;;9.90;6.30;;;;;;;8.31;62.47;99607.45;107109;1250;74435;-71
2022/01/05 00:25:22;;;;;;;10.70;6.40;;;;;;;8.24;62.64;99612.98;107286;1250;69940;-72
2022/01/05 00:27:51;;;;;;;10.30;6.60;;;;;;;8.15;62.98;99619.95;107348;1250;68874;-72
2022/01/05 00:30:21;;;;;;;10.00;6.00;;;;;;;8.04;63.38;99625.38;107219;1250;70346;-73
2022/01/05 00:32:52;;;;;;;9.90;6.20;;;;;;;7.93;64.01;99625.02;107291;1250;59575;-72
2022/01/05 00:35:22;;;;;;;10.50;6.90;;;;;;;7.82;64.37;99625.21;107312;1250;59547;-74
2022/01/05 00:37:51;;;;;;;11.30;6.80;;;;;;;7.73;64.54;99615.96;107343;1250;72039;-74
2022/01/05 00:40:20;;;;;;;10.20;6.50;;;;;;;7.65;64.76;99613.14;107336;1248;70833;-74
2022/01/05 00:42:49;;;;;;;11.00;6.70;;;;;;;7.78;63.99;99597.61;107313;1250;68684;-71
2022/01/05 00:45:18;;;;;;;9.30;6.10;;;;;;;7.79;64.12;99597.87;107339;1250;72028;-73
2022/01/05 00:47:47;;;;;;;9.50;6.40;;;;;;;7.94;63.68;99599.92;107347;1250;59743;-74
2022/01/05 00:50:16;;;;;;;9.60;5.90;;;;;;;8.04;63.69;99592.23;107430;1250;60209;-73
2022/01/05 00:52:45;;;;;;;9.70;5.30;;;;;;;8.09;63.25;99587.86;107414;1250;73520;-74
2022/01/05 00:55:14;;;;;;;9.20;5.90;;;;;;;8.21;63.41;99593.83;107376;1250;71838;-71
2022/01/05 00:57:43;;;;;;;9.30;5.90;;;;;;;8.33;62.67;99589.06;107336;1250;69047;-73
2022/01/05 01:00:13;;;;;;;8.20;5.10;;;;;;;8.34;62.90;99597.64;107355;1250;72559;-71
2022/01/05 01:02:42;;;;;;;9.40;5.60;;;;;;;8.39;62.61;99599.70;107300;1249;62421;-72
2022/01/05 01:05:13;;;;;;;10.30;5.60;;;;;;;8.43;62.58;99593.95;106910;1250;447025;-72
2022/01/05 01:07:44;;;;;;;9.70;6.30;;;;;;;8.46;63.05;99592.02;107348;1248;74366;-72
2022/01/05 01:10:14;;;;;;;8.60;6.00;;;;;;;8.49;62.50;99577.18;107309;1250;70227;-73
2022/01/05 01:12:43;;;;;;;9.40;5.60;;;;;;;8.51;62.73;99574.79;107322;1250;67927;-72
2022/01/05 01:15:12;;;;;;;9.30;6.10;;;;;;;8.49;63.11;99574.87;107327;1250;72962;-73
2022/01/05 01:17:41;;;;;;;8.60;5.50;;;;;;;8.49;62.62;99585.51;107282;1250;61286;-72
2022/01/05 01:20:11;;;;;;;8.40;5.50;;;;;;;8.47;62.73;99587.06;107328;1250;59711;-72
2022/01/05 01:22:40;;;;;;;9.20;5.60;;;;;;;8.42;62.72;99591.08;107226;1249;73786;-72
2022/01/05 01:25:10;;;;;;;8.80;6.00;;;;;;;8.43;63.11;99582.90;107308;1250;70993;-72
2022/01/05 01:27:42;;;;;;;9.60;5.50;;;;;;;8.43;62.96;99573.32;107243;1250;70225;-72
2022/01/05 01:30:12;;;;;;;8.80;5.60;;;;;;;8.40;62.70;99572.53;107929;1248;73157;-73
2022/01/05 01:32:41;;;;;;;9.40;6.10;;;;;;;8.34;63.17;99572.52;107268;1250;59502;-72
2022/01/05 01:35:10;;;;;;;10.00;5.80;;;;;;;8.23;63.28;99570.61;107545;1249;58895;-72
2022/01/05 01:37:39;;;;;;;9.90;6.20;;;;;;;8.29;62.89;99577.36;107449;1250;72519;-72
2022/01/05 01:40:09;;;;;;;7.90;5.40;;;;;;;8.34;62.93;99584.81;107251;1248;69949;-71
2022/01/05 01:42:38;;;;;;;8.80;5.10;;;;;;;8.39;62.90;99590.50;107201;1250;68489;-74
2022/01/05 01:45:08;;;;;;;8.80;5.80;;;;;;;8.43;63.25;99586.49;107110;1250;72398;-73
2022/01/05 01:47:37;;;;;;;8.00;5.40;;;;;;;8.44;62.61;99593.73;107034;1250;59818;-72
2022/01/05 01:50:08;;;;;;;8.10;5.60;;;;;;;8.46;62.82;99588.73;107143;1250;61099;-71
2022/01/05 01:52:37;;;;;;;8.00;5.00;;;;;;;8.51;62.92;99578.45;107099;1250;75384;-71
2022/01/05 01:55:08;;;;;;;9.80;5.40;;;;;;;8.55;62.31;99575.14;107246;1250;73774;-73
2022/01/05 01:57:42;;;;;;;9.60;5.20;;;;;;;8.51;62.43;99571.65;107233;1250;69145;-73
2022/01/05 02:00:12;;;;;;;7.90;5.20;;;;;;;8.46;62.29;99573.41;107097;1251;74926;-72
2022/01/05 02:02:45;;;;;;;7.50;5.20;;;;;;;8.46;62.63;99578.84;107337;1251;59783;-71
2022/01/05 02:05:14;;;;;;;8.30;4.90;;;;;;;8.42;62.65;99576.39;107107;1249;61564;-71
2022/01/05 02:07:43;;;;;;;9.60;5.60;;;;;;;8.39;62.91;99570.36;107692;1250;73577;-72
2022/01/05 02:10:12;;;;;;;10.10;5.60;;;;;;;8.32;63.09;99580.29;107002;1250;68596;-73
2022/01/05 02:12:42;;;;;;;7.90;5.00;;;;;;;8.26;63.04;99589.82;107147;1251;68899;-72
2022/01/05 02:15:11;;;;;;;7.40;4.80;;;;;;;8.19;63.47;99592.92;107205;1249;72444;-72
2022/01/05 02:21:13;;;;;;;6.90;5.40;;;;;;;8.05;64.17;99586.64;107013;1250;60838;-72
2022/01/05 02:23:42;;;;;;;7.20;4.80;;;;;;;8.03;64.14;99584.18;106951;1251;72202;-73
2022/01/05 02:26:11;;;;;;;9.10;6.00;;;;;;;8.14;64.29;99591.95;107040;1249;71121;-71
2022/01/05 02:28:41;;;;;;;8.00;5.50;;;;;;;8.34;63.53;99593.96;107126;1249;70549;-72
2022/01/05 02:31:10;;;;;;;8.40;5.00;;;;;;;8.46;62.55;99591.81;106998;1250;72388;-72
2022/01/05 02:33:43;;;;;;;8.30;5.40;;;;;;;8.57;62.09;99589.88;107081;1249;61910;-70
2022/01/05 02:36:16;;;;;;;8.10;4.90;;;;;;;8.58;62.54;99581.15;106957;1252;59729;-72
2022/01/05 02:38:51;;;;;;;9.30;5.70;;;;;;;8.65;61.70;99588.05;106886;1252;75291;-74
2022/01/05 02:41:21;;;;;;;9.20;5.50;;;;;;;8.68;62.22;99591.07;107002;1250;71904;-73
2022/01/05 02:43:50;;;;;;;9.30;5.40;;;;;;;8.71;62.02;99583.21;107045;1250;70943;-74
2022/01/05 02:46:22;;;;;;;10.10;5.80;;;;;;;8.83;61.59;99580.45;107105;1250;73907;-75
2022/01/05 02:48:54;;;;;;;6.60;4.70;;;;;;;8.82;61.95;99574.84;107476;1250;61845;-73
2022/01/05 02:51:23;;;;;;;7.80;4.80;;;;;;;8.80;62.07;99575.48;107350;1251;61303;-76
2022/01/05 02:53:52;;;;;;;8.10;5.10;;;;;;;8.79;62.27;99574.21;107238;1249;72371;-75
2022/01/05 02:56:21;;;;;;;9.50;5.40;;;;;;;8.74;61.93;99572.67;107251;1249;72709;-72
2022/01/05 02:58:50;;;;;;;9.40;5.40;;;;;;;8.71;61.97;99568.94;107224;1249;69054;-74
2022/01/05 03:01:19;;;;;;;7.10;5.10;;;;;;;8.68;62.53;99567.13;107229;1250;74767;-70
2022/01/05 03:03:48;;;;;;;9.60;5.50;;;;;;;8.65;62.50;99555.38;107319;1249;59585;-75
2022/01/05 03:06:17;;;;;;;7.60;5.30;;;;;;;8.63;62.95;99552.25;107028;1252;59566;-72
2022/01/05 03:08:46;;;;;;;6.50;5.00;;;;;;;8.60;62.74;99559.09;107284;1250;74469;-72
2022/01/05 03:11:15;;;;;;;7.70;4.80;;;;;;;8.61;62.81;99564.20;107221;1249;71496;-72
2022/01/05 03:13:44;;;;;;;4.90;3.50;;;;;;;8.73;61.97;99561.65;107235;1249;69059;-72
2022/01/05 03:16:13;;;;;;;6.10;4.00;;;;;;;9.10;60.87;99556.99;107251;1252;72948;-74
2022/01/05 03:18:42;;;;;;;6.40;4.40;;;;;;;9.30;60.16;99549.55;107215;1251;60038;-74
2022/01/05 03:21:11;;;;;;;7.50;4.50;;;;;;;9.45;59.89;99548.09;107211;1252;59719;-70
2022/01/05 03:23:41;;;;;;;8.50;5.30;;;;;;;9.46;59.43;99541.64;107236;1249;72794;-73
2022/01/05 03:26:10;;;;;;;7.30;4.70;;;;;;;9.43;60.10;99539.99;107263;1249;72566;-72
2022/01/05 03:28:39;;;;;;;5.70;4.30;;;;;;;9.38;60.66;99537.98;107230;1252;70367;-72
2022/01/05 03:31:08;;;;;;;7.20;5.00;;;;;;;9.37;59.74;99540.15;107310;1249;72375;-72
2022/01/05 03:33:37;;;;;;;7.60;4.60;;;;;;;9.38;60.35;99544.55;107334;1249;59683;-73
2022/01/05 03:36:06;;;;;;;7.80;4.20;;;;;;;9.34;60.85;99545.64;107378;1249;59918;-73
2022/01/05 03:38:35;;;;;;;6.90;4.80;;;;;;;9.33;60.73;99549.34;107269;1252;72494;-72
2022/01/05 03:41:04;;;;;;;6.40;4.70;;;;;;;9.28;60.72;99541.44;107275;1249;71318;-70
2022/01/05 03:43:33;;;;;;;6.50;4.60;;;;;;;9.25;61.17;99542.88;107307;1250;68740;-71
2022/01/05 03:46:02;;;;;;;6.90;4.40;;;;;;;9.20;61.32;99530.98;107344;1250;73198;-71
2022/01/05 03:48:31;;;;;;;8.00;5.10;;;;;;;9.19;61.76;99531.09;107256;1249;58970;-74
2022/01/05 03:51:00;;;;;;;8.40;5.20;;;;;;;9.16;61.89;99533.77;107254;1250;60380;-74
2022/01/05 03:53:29;;;;;;;7.10;4.90;;;;;;;9.11;61.74;99532.75;107206;1249;74881;-72
2022/01/05 03:55:59;;;;;;;8.70;5.10;;;;;;;9.13;61.88;99539.05;107134;1252;71390;-71
2022/01/05 03:58:28;;;;;;;10.60;5.60;;;;;;;9.11;62.13;99540.98;107272;1249;70534;-70
2022/01/05 04:00:57;;;;;;;7.80;5.70;;;;;;;9.06;62.16;99537.06;107263;1249;73909;-72
2022/01/05 04:03:27;;;;;;;11.10;6.90;;;;;;;8.96;62.20;99535.59;107189;1250;60988;-72
2022/01/05 04:05:56;;;;;;;9.00;6.40;;;;;;;8.89;62.84;99534.45;107172;1251;60798;-71
2022/01/05 04:08:25;;;;;;;10.90;6.10;;;;;;;8.79;62.72;99537.39;107201;1249;74487;-72
2022/01/05 04:10:54;;;;;;;10.30;7.70;;;;;;;8.72;63.28;99534.62;107234;1249;73714;-73
2022/01/05 04:13:23;;;;;;;22.70;13.10;;;;;;;8.66;63.27;99535.52;106978;1252;70472;-74
2022/01/05 04:15:51;;;;;;;22.50;13.90;;;;;;;8.62;63.57;99542.45;107193;1250;74347;-71
2022/01/05 04:18:20;;;;;;;13.90;7.20;;;;;;;8.52;63.93;99547.97;107218;1250;62757;-71
2022/01/05 04:20:49;;;;;;;105.20;45.10;;;;;;;8.47;64.21;99551.11;107172;1252;61811;-72
2022/01/05 04:23:18;;;;;;;45.50;22.60;;;;;;;8.43;64.43;99550.61;107129;1252;72353;-72
2022/01/05 04:25:47;;;;;;;29.50;15.50;;;;;;;8.41;64.38;99550.05;107170;1252;70690;-73
2022/01/05 04:28:16;;;;;;;10.80;6.30;;;;;;;8.43;64.30;99553.54;107174;1249;68769;-72
2022/01/05 04:30:45;;;;;;;38.30;20.00;;;;;;;8.50;64.03;99562.01;107236;1250;73947;-72
2022/01/05 04:33:14;;;;;;;14.40;8.80;;;;;;;8.53;64.09;99572.39;107153;1251;60891;-72
2022/01/05 04:36:04;;;;;;;16.10;9.90;;;;;;;8.56;63.98;99582.71;107249;1249;60831;-75
2022/01/05 04:38:32;;;;;;;13.20;8.30;;;;;;;8.55;63.98;99582.10;107141;1250;75480;-74
2022/01/05 04:41:01;;;;;;;20.70;10.90;;;;;;;8.54;63.90;99588.96;107207;1251;71888;-74
2022/01/05 04:43:31;;;;;;;29.50;16.10;;;;;;;8.49;64.50;99596.61;107085;1251;71486;-73
2022/01/05 04:46:00;;;;;;;19.10;11.50;;;;;;;8.41;64.80;99594.67;107074;1251;75796;-76
2022/01/05 04:48:29;;;;;;;12.70;8.20;;;;;;;8.33;64.93;99593.56;107142;1250;62522;-73
2022/01/05 04:50:58;;;;;;;11.90;7.60;;;;;;;8.18;65.08;99595.62;107234;1249;59307;-74
2022/01/05 04:53:27;;;;;;;13.30;8.30;;;;;;;8.09;65.64;99606.73;107301;1250;71791;-73
2022/01/05 04:55:57;;;;;;;13.70;7.60;;;;;;;8.01;65.69;99605.30;107320;1249;71369;-74
2022/01/05 04:58:28;;;;;;;12.70;7.40;;;;;;;7.94;65.68;99611.52;107308;1250;70559;-72
2022/01/05 05:00:57;;;;;;;19.10;10.80;;;;;;;7.93;65.88;99605.76;107286;1250;72435;-73
2022/01/05 05:03:27;;;;;;;22.00;14.20;;;;;;;7.91;65.72;99600.48;107229;1250;60585;-72
2022/01/05 05:05:55;;;;;;;10.80;7.10;;;;;;;7.94;65.67;99608.47;107249;1250;60846;-74
2022/01/05 05:08:25;;;;;;;13.90;8.10;;;;;;;7.98;65.67;99613.19;107178;1249;73669;-72
2022/01/05 05:10:53;;;;;;;14.90;9.90;;;;;;;8.01;65.91;99620.70;107245;1252;72360;-74
2022/01/05 05:13:22;;;;;;;10.20;6.30;;;;;;;8.00;66.09;99626.52;107106;1249;71152;-71
2022/01/05 05:15:51;;;;;;;9.20;6.90;;;;;;;7.85;66.18;99627.72;107192;1251;74861;-73
2022/01/05 05:18:20;;;;;;;10.20;7.30;;;;;;;7.73;66.31;99629.84;107367;1250;59762;-74
2022/01/05 05:20:49;;;;;;;10.00;7.10;;;;;;;7.64;66.97;99637.46;107307;1249;59460;-73
2022/01/05 05:23:18;;;;;;;11.20;7.80;;;;;;;7.58;66.82;99636.43;106859;1252;72740;-73
2022/01/05 05:25:47;;;;;;;11.30;8.20;;;;;;;7.48;67.43;99635.75;107001;1253;69835;-75
2022/01/05 05:28:16;;;;;;;12.90;7.70;;;;;;;7.35;68.04;99647.69;106736;1252;67966;-77
2022/01/05 05:30:46;;;;;;;13.40;7.80;;;;;;;7.23;68.64;99655.56;107043;1250;73085;-71
2022/01/05 05:33:15;;;;;;;13.90;7.80;;;;;;;7.14;68.11;99661.55;107032;1250;62837;-76
2022/01/05 05:35:44;;;;;;;12.80;8.40;;;;;;;7.06;68.05;99657.27;107039;1250;61753;-71
2022/01/05 05:38:14;;;;;;;12.40;8.70;;;;;;;6.99;69.04;99661.14;107192;1252;72949;-76
2022/01/05 05:40:44;;;;;;;10.80;8.10;;;;;;;6.93;70.04;99669.54;107099;1252;70331;-76
2022/01/05 05:43:13;;;;;;;16.00;10.60;;;;;;;6.90;69.21;99669.03;107044;1251;69993;-72
2022/01/05 05:45:42;;;;;;;14.20;9.60;;;;;;;6.86;69.22;99671.23;107102;1250;71840;-75
2022/01/05 05:48:11;;;;;;;12.30;8.10;;;;;;;6.82;68.69;99676.19;107076;1250;63294;-71
2022/01/05 05:50:40;;;;;;;14.70;9.80;;;;;;;6.79;69.56;99677.11;107133;1251;62486;-75
2022/01/05 05:53:09;;;;;;;15.10;9.60;;;;;;;6.78;69.36;99680.67;107130;1250;75066;-73
2022/01/05 05:55:40;;;;;;;17.90;11.50;;;;;;;6.76;69.54;99674.04;107162;1251;74337;-72
2022/01/05 05:58:09;;;;;;;11.30;8.10;;;;;;;6.75;69.13;99669.13;107065;1250;71220;-75
2022/01/05 06:00:38;;;;;;;12.10;7.00;;;;;;;6.75;68.92;99667.55;107088;1250;73565;-74
2022/01/05 06:03:07;;;;;;;9.30;6.30;;;;;;;6.76;69.19;99668.71;107096;1250;60201;-75
2022/01/05 06:05:36;;;;;;;10.20;6.50;;;;;;;6.76;69.51;99671.27;107166;1251;59733;-74
2022/01/05 06:08:05;;;;;;;10.50;6.90;;;;;;;6.78;69.96;99679.59;107187;1250;72852;-74
2022/01/05 06:10:34;;;;;;;10.70;8.00;;;;;;;6.80;69.95;99690.39;107147;1250;71085;-72
2022/01/05 06:13:03;;;;;;;11.30;8.70;;;;;;;6.81;69.97;99695.00;107102;1250;70301;-75
2022/01/05 06:15:35;;;;;;;12.50;8.10;;;;;;;6.80;70.21;99693.13;109355;1249;74625;-74
2022/01/05 06:18:04;;;;;;;15.70;8.30;;;;;;;6.79;70.34;99691.84;108828;1249;62746;-73
2022/01/05 06:20:32;;;;;;;12.90;7.60;;;;;;;6.79;71.13;99692.38;109426;1249;60325;-73
2022/01/05 06:23:01;;;;;;;13.10;8.20;;;;;;;6.79;70.81;99687.67;109556;1249;72952;-74
2022/01/05 06:25:30;;;;;;;16.10;10.30;;;;;;;6.80;70.62;99684.84;109472;1249;70393;-74
2022/01/05 06:27:59;;;;;;;18.20;11.90;;;;;;;6.79;70.99;99686.08;108224;1249;69841;-75
2022/01/05 06:30:28;;;;;;;20.40;10.90;;;;;;;6.77;70.89;99687.66;107231;1252;71218;-76
2022/01/05 06:32:57;;;;;;;18.80;10.80;;;;;;;6.78;71.33;99685.86;107246;1251;60030;-75
2022/01/05 06:35:26;;;;;;;21.80;12.20;;;;;;;6.84;70.97;99683.86;107169;1252;62010;-73
2022/01/05 06:37:55;;;;;;;17.60;11.40;;;;;;;6.90;70.23;99682.18;107272;1249;74875;-73
2022/01/05 06:40:24;;;;;;;13.50;9.90;;;;;;;6.95;70.79;99679.77;107254;1250;70717;-76
2022/01/05 06:42:54;;;;;;;17.60;9.70;;;;;;;7.02;70.06;99687.23;107268;1251;68545;-73
2022/01/05 06:45:23;;;;;;;15.10;10.80;;;;;;;7.13;70.35;99690.69;107190;1250;74337;-74
2022/01/05 06:47:52;;;;;;;14.20;10.50;;;;;;;7.20;69.96;99691.26;107110;1252;60133;-76
2022/01/05 06:50:22;;;;;;;15.20;9.30;;;;;;;7.25;69.86;99686.72;107154;1251;58931;-74
2022/01/05 06:52:50;;;;;;;13.50;9.70;;;;;;;7.28;69.46;99692.39;107109;1251;74472;-75
2022/01/05 06:55:19;;;;;;;12.50;8.90;;;;;;;7.26;69.31;99691.11;107269;1250;73112;-76
2022/01/05 06:57:51;;;;;;;16.70;10.10;;;;;;;7.27;69.18;99698.03;107092;1252;69668;-76
2022/01/05 07:00:23;;;;;;;16.70;10.70;;;;;;;7.28;69.20;99697.61;107001;1252;73166;-76
2022/01/05 07:02:52;;;;;;;16.00;10.10;;;;;;;7.29;69.10;99695.91;107089;1250;61893;-76
2022/01/05 07:05:21;;;;;;;19.00;10.50;;;;;;;7.33;69.16;99695.23;106988;1254;62216;-75
2022/01/05 07:07:51;;;;;;;14.80;10.50;;;;;;;7.40;69.56;99699.81;107115;1252;75584;-74
2022/01/05 07:10:20;;;;;;;17.50;10.70;;;;;;;7.43;69.38;99702.63;107114;1250;71845;-76
2022/01/05 07:12:49;;;;;;;18.20;11.20;;;;;;;7.48;69.29;99704.54;107009;1250;71219;-73
2022/01/05 07:15:18;;;;;;;17.90;11.30;;;;;;;7.53;69.16;99704.15;107052;1251;71935;-74
2022/01/05 07:17:47;;;;;;;20.60;12.10;;;;;;;7.59;69.05;99703.55;107162;1251;59559;-75
2022/01/05 07:20:16;;;;;;;23.20;14.40;;;;;;;7.63;69.02;99705.80;107147;1251;60724;-75
2022/01/05 07:22:46;;;;;;;18.60;12.70;;;;;;;7.66;68.81;99701.24;107291;1251;74748;-74
2022/01/05 07:25:14;;;;;;;20.60;12.80;;;;;;;7.68;68.78;99701.27;107119;1253;72663;-73
2022/01/05 07:27:43;;;;;;;17.80;12.10;;;;;;;7.72;68.93;99693.91;107262;1250;68713;-72
2022/01/05 07:30:13;;;;;;;23.00;14.40;;;;;;;7.77;68.86;99686.92;106943;1252;71240;-74
2022/01/05 07:32:42;;;;;;;21.90;15.50;;;;;;;7.79;68.93;99684.17;107185;1252;60526;-75
2022/01/05 07:35:11;;;;;;;21.90;13.30;;;;;;;7.83;68.83;99681.45;107136;1253;61459;-71
2022/01/05 07:37:40;;;;;;;20.50;14.70;;;;;;;7.88;68.49;99684.17;107367;1251;74376;-75
2022/01/05 07:40:10;;;;;;;24.80;17.00;;;;;;;7.92;69.09;99683.68;107270;1250;71219;-81
2022/01/05 07:42:40;;;;;;;25.50;14.90;;;;;;;7.95;68.81;99687.61;107122;1251;68471;-69
2022/01/05 07:45:10;;;;;;;23.80;15.50;;;;;;;7.99;68.41;99675.64;107083;1252;73959;-70
2022/01/05 07:47:39;;;;;;;25.60;18.90;;;;;;;8.05;68.22;99680.42;107187;1251;62230;-72
2022/01/05 07:50:14;;;;;;;20.70;14.50;;;;;;;8.10;68.03;99694.91;107188;1250;60214;-73
2022/01/05 07:52:47;;;;;;;23.00;13.50;;;;;;;8.16;67.92;99694.13;107361;1251;75267;-70
2022/01/05 07:55:16;;;;;;;21.90;13.20;;;;;;;8.24;68.20;99694.35;107329;1251;72672;-72
2022/01/05 07:57:45;;;;;;;16.80;11.50;;;;;;;8.33;67.41;99696.80;107195;1250;71327;-72
2022/01/05 08:00:14;;;;;;;19.20;12.70;;;;;;;8.47;66.47;99692.23;107176;1249;74548;-72
2022/01/05 08:02:43;;;;;;;18.20;11.00;;;;;;;8.59;66.56;99684.17;107206;1251;61043;-71
2022/01/05 08:05:13;;;;;;;18.00;11.30;;;;;;;8.71;66.42;99683.55;107188;1251;60944;-72
2022/01/05 08:07:41;;;;;;;16.80;11.70;;;;;;;8.80;65.67;99685.03;107184;1251;75535;-72
2022/01/05 08:10:11;;;;;;;18.40;11.70;;;;;;;8.92;65.31;99689.27;107195;1250;72899;-69
2022/01/05 08:12:41;;;;;;;23.30;13.40;;;;;;;9.04;65.68;99698.36;107144;1253;70953;-71
2022/01/05 08:15:11;;;;;;;22.00;14.50;;;;;;;9.13;66.25;99698.70;107004;1253;74425;-69
2022/01/05 08:17:43;;;;;;;21.20;14.70;;;;;;;9.18;65.46;99696.70;107306;1251;60576;-71
2022/01/05 08:20:13;;;;;;;12.90;7.10;;;;;;;9.24;64.12;99687.01;107176;1251;59303;-73
2022/01/05 08:22:44;;;;;;;15.60;8.20;;;;;;;9.54;62.28;99685.89;107169;1251;74477;-72
2022/01/05 08:25:16;;;;;;;10.30;6.30;;;;;;;9.89;60.16;99686.54;107165;1251;70079;-71
2022/01/05 08:27:48;;;;;;;13.80;8.00;;;;;;;10.17;59.30;99693.34;106847;1252;69667;-72
2022/01/05 08:30:24;;;;;;;9.90;7.10;;;;;;;10.31;59.11;99692.32;107063;1251;72915;-73
2022/01/05 08:32:54;;;;;;;10.60;6.80;;;;;;;10.42;58.98;99691.77;107067;1251;59533;-72
2022/01/05 08:35:24;;;;;;;12.30;6.60;;;;;;;10.49;59.64;99689.75;107035;1251;62315;-72
2022/01/05 08:37:53;;;;;;;12.50;7.10;;;;;;;10.58;60.02;99690.99;106965;1251;74357;-70
2022/01/05 08:40:24;;;;;;;10.00;7.20;;;;;;;10.66;60.75;99692.88;106863;1251;72458;-72
2022/01/05 08:42:56;;;;;;;10.40;6.90;;;;;;;10.72;60.53;99695.36;107008;1253;69602;-72
2022/01/05 08:45:26;;;;;;;16.70;8.10;;;;;;;10.78;61.02;99695.15;106912;1251;73627;-74
2022/01/05 08:47:56;;;;;;;19.70;8.50;;;;;;;10.83;60.57;99694.36;106981;1251;60428;-73
2022/01/05 08:50:30;;;;;;;20.80;8.30;;;;;;;10.88;59.44;99689.36;106971;1251;60032;-72
2022/01/05 08:53:00;;;;;;;21.80;12.30;;;;;;;10.84;58.45;99676.83;106929;1251;73654;-72
2022/01/05 08:55:41;;;;;;;22.00;13.50;;;;;;;10.61;58.59;99669.85;106997;1250;72649;-72
2022/01/05 08:58:12;;;;;;;22.70;13.30;;;;;;;10.51;58.78;99665.35;106932;1251;71317;-72
2022/01/05 09:00:41;;;;;;;21.60;13.60;;;;;;;10.42;58.77;99649.64;107008;1251;71990;-74
2022/01/05 09:03:14;;;;;;;19.90;13.20;;;;;;;10.38;59.87;99648.38;107092;1251;59607;-71
2022/01/05 09:05:44;;;;;;;21.10;12.80;;;;;;;10.33;59.75;99660.30;107011;1251;59717;-74
2022/01/05 09:08:14;;;;;;;21.00;12.70;;;;;;;10.29;60.14;99663.99;106992;1251;73640;-72
2022/01/05 09:10:44;;;;;;;22.20;12.10;;;;;;;10.26;60.69;99675.17;107080;1251;72864;-73
2022/01/05 09:13:12;;;;;;;18.90;11.30;;;;;;;10.22;60.81;99676.92;106980;1252;71524;-76
2022/01/05 09:15:42;;;;;;;18.40;11.20;;;;;;;10.20;60.47;99675.83;106909;1251;74107;-76
2022/01/05 09:18:14;;;;;;;20.40;9.70;;;;;;;10.24;61.10;99680.59;106825;1254;62313;-69
2022/01/05 09:20:43;;;;;;;36.80;11.10;;;;;;;10.32;61.30;99683.07;106946;1251;61270;-72
2022/01/05 09:23:13;;;;;;;20.60;9.50;;;;;;;10.38;60.78;99671.05;106996;1251;75352;-73
2022/01/05 09:25:43;;;;;;;21.90;10.80;;;;;;;10.43;60.97;99665.91;106940;1249;73640;-71
2022/01/05 09:28:12;;;;;;;16.10;10.10;;;;;;;10.46;60.02;99655.17;107011;1251;72259;-74
2022/01/05 09:30:45;;;;;;;14.70;9.80;;;;;;;10.50;59.21;99655.16;107036;1249;72683;-74
2022/01/05 09:33:14;;;;;;;15.80;10.20;;;;;;;10.55;59.73;99654.58;106974;1251;61401;-75
2022/01/05 09:35:45;;;;;;;17.80;10.80;;;;;;;10.54;59.94;99667.27;106980;1251;60993;-72
2022/01/05 09:43:56;;;;;;;16.40;9.70;;;;;;;10.62;59.92;99652.02;107137;1251;69545;-74
2022/01/05 09:46:51;;;;;;;12.90;8.70;;;;;;;10.61;59.97;99644.90;106998;1251;72373;-74
2022/01/05 09:49:33;;;;;;;12.90;7.60;;;;;;;10.64;60.41;99653.05;106951;1251;59866;-78
2022/01/05 09:52:11;;;;;;;12.50;8.60;;;;;;;10.63;60.14;99652.77;107225;1251;61612;-74
2022/01/05 09:54:44;;;;;;;16.90;9.70;;;;;;;10.60;59.94;99645.92;107191;1251;73781;-65
2022/01/05 09:57:15;;;;;;;15.20;9.10;;;;;;;10.55;59.47;99650.68;107234;1250;71362;-66
2022/01/05 09:59:46;;;;;;;15.60;9.20;;;;;;;10.52;59.40;99652.19;107193;1250;71490;-63
2022/01/05 10:02:16;;;;;;;19.20;10.70;;;;;;;10.49;58.75;99650.49;107179;1251;72275;-66
2022/01/05 10:04:47;;;;;;;24.10;10.90;;;;;;;10.51;59.97;99652.27;107163;1251;60001;-65
2022/01/05 10:07:16;;;;;;;19.20;10.30;;;;;;;10.51;60.14;99646.49;107222;1251;61986;-64
2022/01/05 10:09:46;;;;;;;15.40;10.50;;;;;;;10.49;59.98;99646.41;107245;1251;72485;-83
2022/01/05 10:12:15;;;;;;;18.90;10.20;;;;;;;10.49;60.44;99649.02;107303;1251;69684;-81
2022/01/05 10:14:48;;;;;;;16.30;10.10;;;;;;;10.51;60.02;99646.00;107344;1251;68269;-79
2022/01/05 10:17:26;;;;;;;20.90;11.20;;;;;;;10.56;60.19;99646.27;107360;1251;72007;-84
2022/01/05 10:20:11;;;;;;;27.00;12.20;;;;;;;10.60;59.94;99638.59;107281;1251;63872;-85
2022/01/05 10:22:44;;;;;;;25.60;12.60;;;;;;;10.57;60.18;99631.05;107545;1250;60839;-82
2022/01/05 10:25:18;;;;;;;24.60;12.30;;;;;;;10.53;58.81;99638.16;107433;1250;72518;-81
2022/01/05 10:28:02;;;;;;;24.40;12.60;;;;;;;10.57;59.51;99629.16;107303;1251;73271;-85
2022/01/05 10:30:43;;;;;;;26.90;14.10;;;;;;;10.57;59.33;99625.82;107027;1251;69138;-79
2022/01/05 10:33:12;;;;;;;31.40;14.20;;;;;;;10.52;59.31;99626.76;106966;1253;71873;-82
2022/01/05 10:35:56;;;;;;;25.30;14.00;;;;;;;10.46;59.19;99617.71;107046;1250;59605;-80
2022/01/05 10:38:28;;;;;;;;;;;;;;;10.47;59.74;99616.63;107303;1250;61820;-76
2022/01/05 10:40:57;;;;;;;26.00;11.40;;;;;;;10.46;59.00;99615.98;107087;1251;72350;-77
2022/01/05 10:43:26;;;;;;;20.50;12.80;;;;;;;10.61;58.04;99615.13;107008;1251;70432;-81
2022/01/05 10:45:55;;;;;;;25.50;13.60;;;;;;;10.66;58.26;99609.36;107159;1251;70593;-81
2022/01/05 10:48:25;;;;;;;21.20;12.60;;;;;;;10.65;58.41;99608.22;107228;1251;73696;-74
2022/01/05 10:51:06;;;;;;;19.70;10.80;;;;;;;10.67;58.66;99608.40;107095;1250;60708;-76
2022/01/05 10:53:35;;;;;;;19.60;9.70;;;;;;;10.77;58.28;99598.21;107244;1251;59793;-76
2022/01/05 10:56:04;;;;;;;20.90;11.50;;;;;;;10.92;57.48;99597.62;107415;1253;72741;-78
2022/01/05 10:58:45;;;;;;;27.10;12.40;;;;;;;10.98;57.39;99592.33;107342;1251;70651;-76
2022/01/05 11:01:28;;;;;;;21.90;11.80;;;;;;;11.04;57.27;99596.25;107427;1251;70500;-73
2022/01/05 11:03:58;;;;;;;23.60;13.40;;;;;;;11.10;57.18;99597.17;107168;1251;74248;-78
2022/01/05 11:06:27;;;;;;;27.20;13.60;;;;;;;11.12;57.38;99593.60;107388;1251;60325;-78
2022/01/05 11:09:04;;;;;;;19.90;12.30;;;;;;;11.15;58.16;99587.20;107272;1251;59748;-78
2022/01/05 11:11:39;;;;;;;22.40;12.80;;;;;;;11.20;57.77;99590.77;107189;1251;72789;-79
2022/01/05 11:14:30;;;;;;;17.80;11.70;;;;;;;11.26;58.26;99584.45;107336;1251;72902;-70
2022/01/05 11:17:04;;;;;;;19.00;11.40;;;;;;;11.31;57.09;99575.36;107400;1251;69605;-78
2022/01/05 11:19:36;;;;;;;21.40;12.40;;;;;;;11.35;56.89;99573.36;107000;1251;73223;-80
2022/01/05 11:22:14;;;;;;;;;;;;;;;11.39;56.54;99572.61;107213;1250;60393;-75
2022/01/05 11:24:52;;;;;;;18.00;11.20;;;;;;;11.43;57.68;99569.63;107319;1251;62054;-77
2022/01/05 11:27:25;;;;;;;15.60;11.00;;;;;;;11.43;56.14;99570.35;107305;1252;74140;-76
2022/01/05 11:29:57;;;;;;;17.40;11.10;;;;;;;11.50;57.52;99568.67;106965;1254;70092;-73
2022/01/05 11:32:31;;;;;;;23.70;13.70;;;;;;;11.57;57.90;99568.52;107322;1250;69795;-75
2022/01/05 11:35:00;;;;;;;21.90;13.30;;;;;;;11.64;57.32;99578.98;107001;1251;73583;-77
2022/01/05 11:37:30;;;;;;;19.10;12.00;;;;;;;11.71;57.54;99580.80;107199;1250;60541;-75
2022/01/05 11:39:58;;;;;;;20.00;12.20;;;;;;;11.75;56.65;99583.62;106929;1252;62058;-77
2022/01/05 11:42:34;;;;;;;25.20;12.00;;;;;;;11.78;57.34;99577.65;107129;1250;75484;-77
2022/01/05 11:45:07;;;;;;;21.90;12.00;;;;;;;11.79;56.80;99579.19;107108;1252;70801;-77